sensor_id;sensor_type;location;lat;lon;timestamp;P1;durP1;ratioP1;P2;durP2;ratioP2
19173;SDS011;9719;49.322;8.536;2023-03-07T00:04:43;9.67;;;8.67;;
19173;SDS011;9719;49.322;8.536;2023-03-07T00:09:47;11.17;;;9.03;;
19173;SDS011;9719;49.322;8.536;2023-03-07T00:14:49;11.87;;;9.67;;
19173;SDS011;9719;49.322;8.536;2023-03-07T00:19:50;14.80;;;10.30;;
19173;SDS011;9719;49.322;8.536;2023-03-07T00:24:53;13.50;;;10.70;;
19173;SDS011;9719;49.322;8.536;2023-03-07T00:29:55;13.90;;;11.07;;
19173;SDS011;9719;49.322;8.536;2023-03-07T00:34:57;12.20;;;9.50;;
19173;SDS011;9719;49.322;8.536;2023-03-07T00:40:01;10.57;;;9.10;;
19173;SDS011;9719;49.322;8.536;2023-03-07T00:45:03;11.97;;;9.80;;
19173;SDS011;9719;49.322;8.536;2023-03-07T00:50:05;12.37;;;10.50;;
19173;SDS011;9719;49.322;8.536;2023-03-07T00:55:09;12.90;;;9.90;;
19173;SDS011;9719;49.322;8.536;2023-03-07T01:00:11;11.40;;;9.53;;
19173;SDS011;9719;49.322;8.536;2023-03-07T01:05:13;12.00;;;10.47;;
19173;SDS011;9719;49.322;8.536;2023-03-07T01:10:16;10.63;;;9.07;;
19173;SDS011;9719;49.322;8.536;2023-03-07T01:15:18;12.60;;;9.63;;
19173;SDS011;9719;49.322;8.536;2023-03-07T01:20:19;13.07;;;9.10;;
19173;SDS011;9719;49.322;8.536;2023-03-07T01:25:22;10.87;;;9.13;;
19173;SDS011;9719;49.322;8.536;2023-03-07T01:30:24;9.77;;;8.73;;
19173;SDS011;9719;49.322;8.536;2023-03-07T01:35:26;13.67;;;10.53;;
19173;SDS011;9719;49.322;8.536;2023-03-07T01:40:30;12.37;;;9.17;;
19173;SDS011;9719;49.322;8.536;2023-03-07T01:51:22;13.13;;;9.57;;
19173;SDS011;9719;49.322;8.536;2023-03-07T01:56:26;13.93;;;10.17;;
19173;SDS011;9719;49.322;8.536;2023-03-07T02:01:28;12.20;;;11.00;;
19173;SDS011;9719;49.322;8.536;2023-03-07T02:06:30;10.70;;;9.60;;
19173;SDS011;9719;49.322;8.536;2023-03-07T02:11:39;12.03;;;10.67;;
19173;SDS011;9719;49.322;8.536;2023-03-07T02:16:41;10.97;;;8.53;;
19173;SDS011;9719;49.322;8.536;2023-03-07T02:21:45;11.90;;;10.17;;
19173;SDS011;9719;49.322;8.536;2023-03-07T02:26:52;12.60;;;11.23;;
19173;SDS011;9719;49.322;8.536;2023-03-07T02:31:53;12.77;;;10.37;;
19173;SDS011;9719;49.322;8.536;2023-03-07T02:36:55;12.43;;;10.60;;
19173;SDS011;9719;49.322;8.536;2023-03-07T02:42:03;11.70;;;9.30;;
19173;SDS011;9719;49.322;8.536;2023-03-07T02:47:10;13.33;;;11.97;;
19173;SDS011;9719;49.322;8.536;2023-03-07T02:52:12;11.70;;;10.33;;
19173;SDS011;9719;49.322;8.536;2023-03-07T02:57:15;13.67;;;10.37;;
19173;SDS011;9719;49.322;8.536;2023-03-07T03:02:17;12.37;;;9.77;;
19173;SDS011;9719;49.322;8.536;2023-03-07T03:07:18;12.73;;;10.50;;
19173;SDS011;9719;49.322;8.536;2023-03-07T03:12:21;12.50;;;10.47;;
19173;SDS011;9719;49.322;8.536;2023-03-07T03:17:23;12.70;;;10.47;;
19173;SDS011;9719;49.322;8.536;2023-03-07T03:22:25;12.57;;;9.93;;
19173;SDS011;9719;49.322;8.536;2023-03-07T03:27:28;12.63;;;10.27;;
19173;SDS011;9719;49.322;8.536;2023-03-07T03:32:32;12.60;;;10.40;;
19173;SDS011;9719;49.322;8.536;2023-03-07T03:37:33;14.00;;;9.63;;
19173;SDS011;9719;49.322;8.536;2023-03-07T03:42:36;11.53;;;10.33;;
19173;SDS011;9719;49.322;8.536;2023-03-07T03:47:38;13.67;;;12.27;;
19173;SDS011;9719;49.322;8.536;2023-03-07T03:52:40;13.97;;;10.80;;
19173;SDS011;9719;49.322;8.536;2023-03-07T03:57:45;11.90;;;10.17;;
19173;SDS011;9719;49.322;8.536;2023-03-07T04:02:47;11.13;;;9.60;;
19173;SDS011;9719;49.322;8.536;2023-03-07T04:07:48;11.37;;;10.13;;
19173;SDS011;9719;49.322;8.536;2023-03-07T04:12:51;13.33;;;10.00;;
19173;SDS011;9719;49.322;8.536;2023-03-07T04:17:53;11.03;;;8.83;;
19173;SDS011;9719;49.322;8.536;2023-03-07T04:22:55;11.70;;;8.70;;
19173;SDS011;9719;49.322;8.536;2023-03-07T04:27:58;12.10;;;9.87;;
19173;SDS011;9719;49.322;8.536;2023-03-07T04:32:59;10.13;;;9.03;;
19173;SDS011;9719;49.322;8.536;2023-03-07T04:38:01;13.20;;;9.97;;
19173;SDS011;9719;49.322;8.536;2023-03-07T04:43:04;10.73;;;8.67;;
19173;SDS011;9719;49.322;8.536;2023-03-07T04:48:06;12.07;;;9.90;;
19173;SDS011;9719;49.322;8.536;2023-03-07T04:53:08;11.20;;;9.23;;
19173;SDS011;9719;49.322;8.536;2023-03-07T04:58:11;11.70;;;9.77;;
19173;SDS011;9719;49.322;8.536;2023-03-07T05:03:13;10.57;;;9.23;;
19173;SDS011;9719;49.322;8.536;2023-03-07T05:08:15;10.67;;;9.30;;
19173;SDS011;9719;49.322;8.536;2023-03-07T05:13:18;11.23;;;8.50;;
19173;SDS011;9719;49.322;8.536;2023-03-07T05:18:19;10.40;;;9.27;;
19173;SDS011;9719;49.322;8.536;2023-03-07T05:23:21;9.77;;;8.63;;
19173;SDS011;9719;49.322;8.536;2023-03-07T05:28:24;12.13;;;9.20;;
19173;SDS011;9719;49.322;8.536;2023-03-07T05:33:26;12.60;;;9.00;;
19173;SDS011;9719;49.322;8.536;2023-03-07T05:38:27;10.23;;;7.73;;
19173;SDS011;9719;49.322;8.536;2023-03-07T05:43:31;8.90;;;7.60;;
19173;SDS011;9719;49.322;8.536;2023-03-07T05:48:32;7.97;;;7.07;;
19173;SDS011;9719;49.322;8.536;2023-03-07T05:53:34;11.13;;;8.27;;
19173;SDS011;9719;49.322;8.536;2023-03-07T05:58:37;9.23;;;7.90;;
19173;SDS011;9719;49.322;8.536;2023-03-07T06:03:39;10.93;;;8.17;;
19173;SDS011;9719;49.322;8.536;2023-03-07T06:08:41;10.77;;;7.20;;
19173;SDS011;9719;49.322;8.536;2023-03-07T06:13:44;9.00;;;7.83;;
19173;SDS011;9719;49.322;8.536;2023-03-07T06:18:46;8.97;;;7.40;;
19173;SDS011;9719;49.322;8.536;2023-03-07T06:23:48;9.80;;;6.93;;
19173;SDS011;9719;49.322;8.536;2023-03-07T06:28:51;7.40;;;6.27;;
19173;SDS011;9719;49.322;8.536;2023-03-07T06:33:53;8.80;;;7.03;;
19173;SDS011;9719;49.322;8.536;2023-03-07T06:38:54;10.77;;;7.53;;
19173;SDS011;9719;49.322;8.536;2023-03-07T06:43:58;8.67;;;6.67;;
19173;SDS011;9719;49.322;8.536;2023-03-07T06:48:59;8.63;;;7.37;;
19173;SDS011;9719;49.322;8.536;2023-03-07T06:54:01;9.17;;;6.87;;
19173;SDS011;9719;49.322;8.536;2023-03-07T06:59:04;7.90;;;7.10;;
19173;SDS011;9719;49.322;8.536;2023-03-07T07:04:06;8.60;;;7.27;;
19173;SDS011;9719;49.322;8.536;2023-03-07T07:09:10;7.20;;;6.47;;
19173;SDS011;9719;49.322;8.536;2023-03-07T07:14:14;7.50;;;6.47;;
19173;SDS011;9719;49.322;8.536;2023-03-07T07:19:15;8.83;;;7.93;;
19173;SDS011;9719;49.322;8.536;2023-03-07T07:24:17;9.40;;;7.37;;
19173;SDS011;9719;49.322;8.536;2023-03-07T07:29:20;8.53;;;6.57;;
19173;SDS011;9719;49.322;8.536;2023-03-07T07:34:24;8.83;;;7.93;;
19173;SDS011;9719;49.322;8.536;2023-03-07T07:39:25;7.43;;;6.30;;
19173;SDS011;9719;49.322;8.536;2023-03-07T07:44:29;9.17;;;7.97;;
19173;SDS011;9719;49.322;8.536;2023-03-07T07:49:31;8.83;;;8.00;;
19173;SDS011;9719;49.322;8.536;2023-03-07T07:54:32;7.10;;;6.40;;
19173;SDS011;9719;49.322;8.536;2023-03-07T07:59:36;8.73;;;6.23;;
19173;SDS011;9719;49.322;8.536;2023-03-07T08:04:37;7.37;;;6.60;;
19173;SDS011;9719;49.322;8.536;2023-03-07T08:09:39;7.97;;;7.17;;
19173;SDS011;9719;49.322;8.536;2023-03-07T08:14:42;7.47;;;6.57;;
19173;SDS011;9719;49.322;8.536;2023-03-07T08:19:44;9.23;;;7.00;;
19173;SDS011;9719;49.322;8.536;2023-03-07T08:24:45;6.87;;;6.17;;
19173;SDS011;9719;49.322;8.536;2023-03-07T08:29:50;7.03;;;6.37;;
19173;SDS011;9719;49.322;8.536;2023-03-07T08:34:52;7.50;;;6.73;;
19173;SDS011;9719;49.322;8.536;2023-03-07T08:39:54;7.93;;;7.13;;
19173;SDS011;9719;49.322;8.536;2023-03-07T08:44:57;6.90;;;5.27;;
19173;SDS011;9719;49.322;8.536;2023-03-07T08:49:58;6.77;;;5.87;;
19173;SDS011;9719;49.322;8.536;2023-03-07T08:55:00;8.30;;;6.60;;
19173;SDS011;9719;49.322;8.536;2023-03-07T09:00:04;6.43;;;5.83;;
19173;SDS011;9719;49.322;8.536;2023-03-07T09:05:09;6.82;;;5.55;;
19173;SDS011;9719;49.322;8.536;2023-03-07T09:10:10;7.25;;;5.60;;
19173;SDS011;9719;49.322;8.536;2023-03-07T09:15:13;6.82;;;6.10;;
19173;SDS011;9719;49.322;8.536;2023-03-07T09:20:15;5.57;;;4.97;;
19173;SDS011;9719;49.322;8.536;2023-03-07T09:25:17;8.17;;;6.47;;
19173;SDS011;9719;49.322;8.536;2023-03-07T09:30:20;5.97;;;5.43;;
19173;SDS011;9719;49.322;8.536;2023-03-07T09:35:24;5.93;;;5.07;;
19173;SDS011;9719;49.322;8.536;2023-03-07T09:40:26;7.03;;;6.05;;
19173;SDS011;9719;49.322;8.536;2023-03-07T09:45:41;5.38;;;4.88;;
19173;SDS011;9719;49.322;8.536;2023-03-07T09:50:48;5.85;;;5.30;;
19173;SDS011;9719;49.322;8.536;2023-03-07T09:55:54;5.93;;;5.33;;
19173;SDS011;9719;49.322;8.536;2023-03-07T10:00:59;5.20;;;4.70;;
19173;SDS011;9719;49.322;8.536;2023-03-07T10:06:06;7.10;;;5.70;;
19173;SDS011;9719;49.322;8.536;2023-03-07T10:11:16;6.78;;;5.57;;
19173;SDS011;9719;49.322;8.536;2023-03-07T10:16:28;5.20;;;4.80;;
19173;SDS011;9719;49.322;8.536;2023-03-07T10:21:38;9.18;;;6.53;;
19173;SDS011;9719;49.322;8.536;2023-03-07T10:26:46;5.50;;;4.63;;
19173;SDS011;9719;49.322;8.536;2023-03-07T10:32:01;7.18;;;5.47;;
19173;SDS011;9719;49.322;8.536;2023-03-07T10:37:15;6.68;;;5.57;;
19173;SDS011;9719;49.322;8.536;2023-03-07T10:42:19;9.25;;;5.90;;
19173;SDS011;9719;49.322;8.536;2023-03-07T10:47:25;4.97;;;4.10;;
19173;SDS011;9719;49.322;8.536;2023-03-07T10:52:29;6.57;;;5.95;;
19173;SDS011;9719;49.322;8.536;2023-03-07T10:57:34;7.05;;;5.07;;
19173;SDS011;9719;49.322;8.536;2023-03-07T11:02:40;5.30;;;4.80;;
19173;SDS011;9719;49.322;8.536;2023-03-07T11:07:44;6.20;;;4.90;;
19173;SDS011;9719;49.322;8.536;2023-03-07T11:12:46;5.18;;;4.68;;
19173;SDS011;9719;49.322;8.536;2023-03-07T11:17:49;7.90;;;5.25;;
19173;SDS011;9719;49.322;8.536;2023-03-07T11:23:10;6.03;;;4.85;;
19173;SDS011;9719;49.322;8.536;2023-03-07T11:28:25;4.72;;;4.32;;
19173;SDS011;9719;49.322;8.536;2023-03-07T11:33:32;6.53;;;4.57;;
19173;SDS011;9719;49.322;8.536;2023-03-07T11:38:50;5.55;;;5.00;;
19173;SDS011;9719;49.322;8.536;2023-03-07T11:44:03;6.05;;;5.30;;
19173;SDS011;9719;49.322;8.536;2023-03-07T11:49:22;5.53;;;5.03;;
19173;SDS011;9719;49.322;8.536;2023-03-07T11:54:36;5.63;;;5.13;;
19173;SDS011;9719;49.322;8.536;2023-03-07T12:00:01;5.03;;;4.57;;
19173;SDS011;9719;49.322;8.536;2023-03-07T12:05:23;9.90;;;5.32;;
19173;SDS011;9719;49.322;8.536;2023-03-07T12:10:41;4.57;;;4.03;;
19173;SDS011;9719;49.322;8.536;2023-03-07T12:15:52;6.78;;;4.43;;
19173;SDS011;9719;49.322;8.536;2023-03-07T12:21:01;7.25;;;4.78;;
19173;SDS011;9719;49.322;8.536;2023-03-07T12:26:16;6.47;;;4.65;;
19173;SDS011;9719;49.322;8.536;2023-03-07T12:31:25;7.38;;;5.53;;
19173;SDS011;9719;49.322;8.536;2023-03-07T12:36:33;4.97;;;4.20;;
19173;SDS011;9719;49.322;8.536;2023-03-07T12:41:40;5.10;;;3.90;;
19173;SDS011;9719;49.322;8.536;2023-03-07T12:46:48;4.60;;;4.15;;
19173;SDS011;9719;49.322;8.536;2023-03-07T12:51:56;4.97;;;4.50;;
19173;SDS011;9719;49.322;8.536;2023-03-07T12:57:02;4.32;;;3.92;;
19173;SDS011;9719;49.322;8.536;2023-03-07T13:02:10;5.90;;;4.22;;
19173;SDS011;9719;49.322;8.536;2023-03-07T13:07:17;6.00;;;4.78;;
19173;SDS011;9719;49.322;8.536;2023-03-07T13:12:30;4.68;;;4.22;;
19173;SDS011;9719;49.322;8.536;2023-03-07T13:22:59;6.72;;;4.88;;
19173;SDS011;9719;49.322;8.536;2023-03-07T13:28:30;5.13;;;4.63;;
19173;SDS011;9719;49.322;8.536;2023-03-07T13:33:36;6.13;;;4.55;;
19173;SDS011;9719;49.322;8.536;2023-03-07T13:38:41;4.65;;;4.25;;
19173;SDS011;9719;49.322;8.536;2023-03-07T13:43:54;4.47;;;4.07;;
19173;SDS011;9719;49.322;8.536;2023-03-07T13:49:02;5.43;;;4.40;;
19173;SDS011;9719;49.322;8.536;2023-03-07T13:54:09;6.28;;;3.97;;
19173;SDS011;9719;49.322;8.536;2023-03-07T13:59:17;4.78;;;4.10;;
19173;SDS011;9719;49.322;8.536;2023-03-07T14:04:28;4.38;;;3.97;;
19173;SDS011;9719;49.322;8.536;2023-03-07T14:09:39;5.10;;;4.60;;
19173;SDS011;9719;49.322;8.536;2023-03-07T14:14:46;4.93;;;4.43;;
19173;SDS011;9719;49.322;8.536;2023-03-07T14:20:01;4.97;;;4.47;;
19173;SDS011;9719;49.322;8.536;2023-03-07T14:25:15;4.77;;;4.23;;
19173;SDS011;9719;49.322;8.536;2023-03-07T14:30:19;6.50;;;5.72;;
19173;SDS011;9719;49.322;8.536;2023-03-07T14:35:31;4.97;;;4.30;;
19173;SDS011;9719;49.322;8.536;2023-03-07T14:40:43;4.10;;;3.67;;
19173;SDS011;9719;49.322;8.536;2023-03-07T14:46:02;3.93;;;3.53;;
19173;SDS011;9719;49.322;8.536;2023-03-07T14:51:13;4.10;;;3.37;;
19173;SDS011;9719;49.322;8.536;2023-03-07T14:56:19;3.87;;;3.40;;
19173;SDS011;9719;49.322;8.536;2023-03-07T15:01:26;5.37;;;3.77;;
19173;SDS011;9719;49.322;8.536;2023-03-07T15:06:30;4.88;;;3.30;;
19173;SDS011;9719;49.322;8.536;2023-03-07T15:11:43;4.97;;;3.30;;
19173;SDS011;9719;49.322;8.536;2023-03-07T15:16:48;4.75;;;4.35;;
19173;SDS011;9719;49.322;8.536;2023-03-07T15:21:51;5.00;;;4.43;;
19173;SDS011;9719;49.322;8.536;2023-03-07T15:26:58;4.50;;;3.80;;
19173;SDS011;9719;49.322;8.536;2023-03-07T15:32:01;6.00;;;3.97;;
19173;SDS011;9719;49.322;8.536;2023-03-07T15:42:33;4.57;;;4.18;;
19173;SDS011;9719;49.322;8.536;2023-03-07T15:47:48;5.10;;;4.50;;
19173;SDS011;9719;49.322;8.536;2023-03-07T15:52:50;4.57;;;4.17;;
19173;SDS011;9719;49.322;8.536;2023-03-07T15:57:55;5.13;;;4.63;;
19173;SDS011;9719;49.322;8.536;2023-03-07T16:03:12;6.33;;;5.20;;
19173;SDS011;9719;49.322;8.536;2023-03-07T16:08:22;7.93;;;4.50;;
19173;SDS011;9719;49.322;8.536;2023-03-07T16:13:26;5.88;;;5.38;;
19173;SDS011;9719;49.322;8.536;2023-03-07T16:18:30;7.25;;;5.25;;
19173;SDS011;9719;49.322;8.536;2023-03-07T16:23:33;7.50;;;5.53;;
19173;SDS011;9719;49.322;8.536;2023-03-07T16:28:36;7.55;;;5.22;;
19173;SDS011;9719;49.322;8.536;2023-03-07T16:33:39;6.37;;;5.37;;
19173;SDS011;9719;49.322;8.536;2023-03-07T16:38:41;6.00;;;4.90;;
19173;SDS011;9719;49.322;8.536;2023-03-07T16:43:45;4.67;;;4.20;;
19173;SDS011;9719;49.322;8.536;2023-03-07T16:48:51;5.83;;;5.20;;
19173;SDS011;9719;49.322;8.536;2023-03-07T16:53:53;6.20;;;5.60;;
19173;SDS011;9719;49.322;8.536;2023-03-07T16:58:57;5.95;;;5.38;;
19173;SDS011;9719;49.322;8.536;2023-03-07T17:03:59;8.87;;;7.23;;
19173;SDS011;9719;49.322;8.536;2023-03-07T17:09:00;7.13;;;6.33;;
19173;SDS011;9719;49.322;8.536;2023-03-07T17:14:05;7.80;;;5.83;;
19173;SDS011;9719;49.322;8.536;2023-03-07T17:19:11;6.27;;;5.50;;
19173;SDS011;9719;49.322;8.536;2023-03-07T17:24:23;11.97;;;5.17;;
19173;SDS011;9719;49.322;8.536;2023-03-07T17:29:27;6.33;;;5.73;;
19173;SDS011;9719;49.322;8.536;2023-03-07T17:34:32;5.40;;;4.70;;
19173;SDS011;9719;49.322;8.536;2023-03-07T17:39:34;6.83;;;5.87;;
19173;SDS011;9719;49.322;8.536;2023-03-07T17:44:38;5.93;;;4.93;;
19173;SDS011;9719;49.322;8.536;2023-03-07T17:49:40;5.87;;;5.27;;
19173;SDS011;9719;49.322;8.536;2023-03-07T17:54:42;7.67;;;6.60;;
19173;SDS011;9719;49.322;8.536;2023-03-07T17:59:46;8.17;;;7.33;;
19173;SDS011;9719;49.322;8.536;2023-03-07T18:04:48;6.73;;;6.03;;
19173;SDS011;9719;49.322;8.536;2023-03-07T18:09:51;8.00;;;6.27;;
19173;SDS011;9719;49.322;8.536;2023-03-07T18:14:54;7.03;;;4.87;;
19173;SDS011;9719;49.322;8.536;2023-03-07T18:19:56;7.17;;;6.13;;
19173;SDS011;9719;49.322;8.536;2023-03-07T18:24:57;5.37;;;4.50;;
19173;SDS011;9719;49.322;8.536;2023-03-07T18:30:01;5.77;;;4.67;;
19173;SDS011;9719;49.322;8.536;2023-03-07T18:35:03;6.63;;;4.67;;
19173;SDS011;9719;49.322;8.536;2023-03-07T18:40:06;7.43;;;5.17;;
19173;SDS011;9719;49.322;8.536;2023-03-07T18:45:10;5.80;;;5.07;;
19173;SDS011;9719;49.322;8.536;2023-03-07T18:50:12;6.20;;;5.10;;
19173;SDS011;9719;49.322;8.536;2023-03-07T18:55:14;5.47;;;4.83;;
19173;SDS011;9719;49.322;8.536;2023-03-07T19:00:17;6.87;;;4.60;;
19173;SDS011;9719;49.322;8.536;2023-03-07T19:05:20;7.03;;;4.97;;
19173;SDS011;9719;49.322;8.536;2023-03-07T19:10:21;7.47;;;4.90;;
19173;SDS011;9719;49.322;8.536;2023-03-07T19:15:24;5.47;;;4.97;;
19173;SDS011;9719;49.322;8.536;2023-03-07T19:20:26;10.70;;;4.90;;
19173;SDS011;9719;49.322;8.536;2023-03-07T19:25:28;6.07;;;4.50;;
19173;SDS011;9719;49.322;8.536;2023-03-07T19:30:32;8.27;;;5.50;;
19173;SDS011;9719;49.322;8.536;2023-03-07T19:35:36;6.10;;;5.47;;
19173;SDS011;9719;49.322;8.536;2023-03-07T19:40:37;7.50;;;5.20;;
19173;SDS011;9719;49.322;8.536;2023-03-07T19:45:40;7.00;;;5.40;;
19173;SDS011;9719;49.322;8.536;2023-03-07T19:50:43;5.47;;;4.97;;
19173;SDS011;9719;49.322;8.536;2023-03-07T19:55:45;5.10;;;4.60;;
19173;SDS011;9719;49.322;8.536;2023-03-07T20:00:51;6.73;;;6.00;;
19173;SDS011;9719;49.322;8.536;2023-03-07T20:05:52;9.87;;;5.70;;
19173;SDS011;9719;49.322;8.536;2023-03-07T20:10:54;5.93;;;4.60;;
19173;SDS011;9719;49.322;8.536;2023-03-07T20:15:57;5.50;;;5.00;;
19173;SDS011;9719;49.322;8.536;2023-03-07T20:21:01;10.00;;;6.00;;
19173;SDS011;9719;49.322;8.536;2023-03-07T20:26:04;6.73;;;5.93;;
19173;SDS011;9719;49.322;8.536;2023-03-07T20:31:09;5.73;;;4.63;;
19173;SDS011;9719;49.322;8.536;2023-03-07T20:36:13;8.37;;;7.53;;
19173;SDS011;9719;49.322;8.536;2023-03-07T20:41:18;7.67;;;6.13;;
19173;SDS011;9719;49.322;8.536;2023-03-07T20:46:23;7.87;;;6.13;;
19173;SDS011;9719;49.322;8.536;2023-03-07T20:51:25;8.23;;;5.03;;
19173;SDS011;9719;49.322;8.536;2023-03-07T20:56:29;7.63;;;5.47;;
19173;SDS011;9719;49.322;8.536;2023-03-07T21:01:33;7.03;;;5.60;;
19173;SDS011;9719;49.322;8.536;2023-03-07T21:06:36;5.97;;;5.37;;
19173;SDS011;9719;49.322;8.536;2023-03-07T21:11:40;6.23;;;5.17;;
19173;SDS011;9719;49.322;8.536;2023-03-07T21:16:46;5.63;;;4.93;;
19173;SDS011;9719;49.322;8.536;2023-03-07T21:21:47;6.33;;;5.73;;
19173;SDS011;9719;49.322;8.536;2023-03-07T21:26:49;7.10;;;5.57;;
19173;SDS011;9719;49.322;8.536;2023-03-07T21:31:52;5.33;;;4.83;;
19173;SDS011;9719;49.322;8.536;2023-03-07T21:36:54;4.53;;;4.00;;
19173;SDS011;9719;49.322;8.536;2023-03-07T21:41:56;6.13;;;5.40;;
19173;SDS011;9719;49.322;8.536;2023-03-07T21:46:59;6.63;;;5.43;;
19173;SDS011;9719;49.322;8.536;2023-03-07T21:52:01;5.73;;;4.70;;
19173;SDS011;9719;49.322;8.536;2023-03-07T21:57:03;7.37;;;5.73;;
19173;SDS011;9719;49.322;8.536;2023-03-07T22:02:08;7.80;;;5.00;;
19173;SDS011;9719;49.322;8.536;2023-03-07T22:07:10;6.07;;;5.13;;
19173;SDS011;9719;49.322;8.536;2023-03-07T22:12:13;6.40;;;5.80;;
19173;SDS011;9719;49.322;8.536;2023-03-07T22:17:16;6.60;;;5.30;;
19173;SDS011;9719;49.322;8.536;2023-03-07T22:22:17;6.43;;;5.37;;
19173;SDS011;9719;49.322;8.536;2023-03-07T22:27:19;5.80;;;5.30;;
19173;SDS011;9719;49.322;8.536;2023-03-07T22:32:22;5.80;;;5.07;;
19173;SDS011;9719;49.322;8.536;2023-03-07T22:37:24;5.17;;;4.50;;
19173;SDS011;9719;49.322;8.536;2023-03-07T22:42:25;7.23;;;4.97;;
19173;SDS011;9719;49.322;8.536;2023-03-07T22:47:28;5.23;;;4.73;;
19173;SDS011;9719;49.322;8.536;2023-03-07T22:52:31;6.10;;;5.33;;
19173;SDS011;9719;49.322;8.536;2023-03-07T22:57:32;5.47;;;4.97;;
19173;SDS011;9719;49.322;8.536;2023-03-07T23:02:35;9.40;;;5.23;;
19173;SDS011;9719;49.322;8.536;2023-03-07T23:07:37;5.70;;;4.57;;
19173;SDS011;9719;49.322;8.536;2023-03-07T23:12:39;5.00;;;4.50;;
19173;SDS011;9719;49.322;8.536;2023-03-07T23:17:42;6.23;;;4.60;;
19173;SDS011;9719;49.322;8.536;2023-03-07T23:22:44;6.57;;;5.10;;
19173;SDS011;9719;49.322;8.536;2023-03-07T23:27:46;6.40;;;5.80;;
19173;SDS011;9719;49.322;8.536;2023-03-07T23:32:49;5.93;;;5.27;;
19173;SDS011;9719;49.322;8.536;2023-03-07T23:37:51;6.27;;;5.67;;
19173;SDS011;9719;49.322;8.536;2023-03-07T23:42:53;5.47;;;4.97;;
19173;SDS011;9719;49.322;8.536;2023-03-07T23:47:56;5.30;;;4.80;;
19173;SDS011;9719;49.322;8.536;2023-03-07T23:52:57;6.53;;;5.37;;
19173;SDS011;9719;49.322;8.536;2023-03-07T23:57:59;5.13;;;4.67;;
